sensor_id;sensor_type;location;lat;lon;timestamp;P1;durP1;ratioP1;P2;durP2;ratioP2
10260;SDS011;5175;42.606;23.388;2023-01-10T00:02:04;15.23;;;10.73;;
10260;SDS011;5175;42.606;23.388;2023-01-10T00:04:31;13.50;;;10.30;;
10260;SDS011;5175;42.606;23.388;2023-01-10T00:06:58;15.80;;;10.47;;
10260;SDS011;5175;42.606;23.388;2023-01-10T00:09:24;14.97;;;9.13;;
10260;SDS011;5175;42.606;23.388;2023-01-10T00:11:51;13.73;;;10.20;;
10260;SDS011;5175;42.606;23.388;2023-01-10T00:14:35;15.37;;;10.57;;
10260;SDS011;5175;42.606;23.388;2023-01-10T00:17:04;15.73;;;10.40;;
10260;SDS011;5175;42.606;23.388;2023-01-10T00:19:31;15.30;;;11.13;;
10260;SDS011;5175;42.606;23.388;2023-01-10T00:21:58;16.63;;;11.10;;
10260;SDS011;5175;42.606;23.388;2023-01-10T00:24:38;16.27;;;10.23;;
10260;SDS011;5175;42.606;23.388;2023-01-10T00:27:06;14.33;;;9.97;;
10260;SDS011;5175;42.606;23.388;2023-01-10T00:29:36;15.67;;;10.53;;
10260;SDS011;5175;42.606;23.388;2023-01-10T00:32:05;16.33;;;10.33;;
10260;SDS011;5175;42.606;23.388;2023-01-10T00:34:32;18.53;;;12.50;;
10260;SDS011;5175;42.606;23.388;2023-01-10T00:36:59;14.30;;;9.57;;
10260;SDS011;5175;42.606;23.388;2023-01-10T00:39:25;13.23;;;9.73;;
10260;SDS011;5175;42.606;23.388;2023-01-10T00:41:52;12.97;;;9.27;;
10260;SDS011;5175;42.606;23.388;2023-01-10T00:44:36;12.80;;;9.53;;
10260;SDS011;5175;42.606;23.388;2023-01-10T00:47:03;12.63;;;9.70;;
10260;SDS011;5175;42.606;23.388;2023-01-10T00:49:31;17.10;;;11.03;;
10260;SDS011;5175;42.606;23.388;2023-01-10T00:51:58;15.07;;;11.03;;
10260;SDS011;5175;42.606;23.388;2023-01-10T00:54:24;16.73;;;11.53;;
10260;SDS011;5175;42.606;23.388;2023-01-10T00:56:51;15.43;;;10.20;;
10260;SDS011;5175;42.606;23.388;2023-01-10T00:59:18;14.70;;;10.10;;
10260;SDS011;5175;42.606;23.388;2023-01-10T01:01:45;17.30;;;11.63;;
10260;SDS011;5175;42.606;23.388;2023-01-10T01:04:13;17.40;;;11.90;;
10260;SDS011;5175;42.606;23.388;2023-01-10T01:06:41;15.53;;;11.07;;
10260;SDS011;5175;42.606;23.388;2023-01-10T01:09:08;17.57;;;11.33;;
10260;SDS011;5175;42.606;23.388;2023-01-10T01:11:35;16.13;;;10.60;;
10260;SDS011;5175;42.606;23.388;2023-01-10T01:14:02;17.00;;;11.53;;
10260;SDS011;5175;42.606;23.388;2023-01-10T01:16:28;16.97;;;10.77;;
10260;SDS011;5175;42.606;23.388;2023-01-10T01:18:55;14.80;;;10.83;;
10260;SDS011;5175;42.606;23.388;2023-01-10T01:21:24;17.40;;;11.10;;
10260;SDS011;5175;42.606;23.388;2023-01-10T01:23:52;16.27;;;11.73;;
10260;SDS011;5175;42.606;23.388;2023-01-10T01:26:20;17.00;;;12.47;;
10260;SDS011;5175;42.606;23.388;2023-01-10T01:28:47;18.07;;;11.77;;
10260;SDS011;5175;42.606;23.388;2023-01-10T01:31:14;17.73;;;11.53;;
10260;SDS011;5175;42.606;23.388;2023-01-10T01:33:41;18.83;;;12.97;;
10260;SDS011;5175;42.606;23.388;2023-01-10T01:36:08;18.63;;;13.33;;
10260;SDS011;5175;42.606;23.388;2023-01-10T01:38:38;19.80;;;12.47;;
10260;SDS011;5175;42.606;23.388;2023-01-10T01:41:06;18.53;;;12.93;;
10260;SDS011;5175;42.606;23.388;2023-01-10T01:44:00;18.50;;;11.80;;
10260;SDS011;5175;42.606;23.388;2023-01-10T01:46:29;19.10;;;11.93;;
10260;SDS011;5175;42.606;23.388;2023-01-10T01:48:57;18.03;;;13.37;;
10260;SDS011;5175;42.606;23.388;2023-01-10T01:51:25;15.93;;;11.40;;
10260;SDS011;5175;42.606;23.388;2023-01-10T01:53:56;16.23;;;11.37;;
10260;SDS011;5175;42.606;23.388;2023-01-10T01:56:28;16.10;;;11.27;;
10260;SDS011;5175;42.606;23.388;2023-01-10T01:59:00;17.20;;;11.17;;
10260;SDS011;5175;42.606;23.388;2023-01-10T02:01:32;16.83;;;11.27;;
10260;SDS011;5175;42.606;23.388;2023-01-10T02:04:02;17.10;;;11.73;;
10260;SDS011;5175;42.606;23.388;2023-01-10T02:06:34;16.17;;;10.83;;
10260;SDS011;5175;42.606;23.388;2023-01-10T02:09:04;18.93;;;12.20;;
10260;SDS011;5175;42.606;23.388;2023-01-10T02:11:38;16.33;;;11.23;;
10260;SDS011;5175;42.606;23.388;2023-01-10T02:14:05;18.57;;;11.97;;
10260;SDS011;5175;42.606;23.388;2023-01-10T02:16:33;15.80;;;10.53;;
10260;SDS011;5175;42.606;23.388;2023-01-10T02:19:00;17.90;;;10.80;;
10260;SDS011;5175;42.606;23.388;2023-01-10T02:21:33;16.63;;;10.10;;
10260;SDS011;5175;42.606;23.388;2023-01-10T02:24:26;18.00;;;11.70;;
10260;SDS011;5175;42.606;23.388;2023-01-10T02:27:18;19.97;;;12.30;;
10260;SDS011;5175;42.606;23.388;2023-01-10T02:29:58;19.93;;;12.07;;
10260;SDS011;5175;42.606;23.388;2023-01-10T02:33:00;17.67;;;11.07;;
10260;SDS011;5175;42.606;23.388;2023-01-10T02:35:36;17.93;;;12.33;;
10260;SDS011;5175;42.606;23.388;2023-01-10T02:38:13;19.10;;;12.57;;
10260;SDS011;5175;42.606;23.388;2023-01-10T02:40:48;21.10;;;13.83;;
10260;SDS011;5175;42.606;23.388;2023-01-10T02:43:24;15.30;;;10.23;;
10260;SDS011;5175;42.606;23.388;2023-01-10T02:45:57;18.43;;;13.03;;
10260;SDS011;5175;42.606;23.388;2023-01-10T02:48:29;19.33;;;12.13;;
10260;SDS011;5175;42.606;23.388;2023-01-10T02:50:56;21.10;;;13.83;;
10260;SDS011;5175;42.606;23.388;2023-01-10T02:53:28;19.13;;;11.37;;
10260;SDS011;5175;42.606;23.388;2023-01-10T02:56:04;18.53;;;12.50;;
10260;SDS011;5175;42.606;23.388;2023-01-10T02:58:59;16.70;;;11.27;;
10260;SDS011;5175;42.606;23.388;2023-01-10T03:01:41;19.67;;;12.90;;
10260;SDS011;5175;42.606;23.388;2023-01-10T03:04:15;15.60;;;10.73;;
10260;SDS011;5175;42.606;23.388;2023-01-10T03:06:51;17.13;;;11.83;;
10260;SDS011;5175;42.606;23.388;2023-01-10T03:09:24;18.37;;;11.57;;
10260;SDS011;5175;42.606;23.388;2023-01-10T03:11:57;17.63;;;13.63;;
10260;SDS011;5175;42.606;23.388;2023-01-10T03:14:35;20.80;;;15.30;;
10260;SDS011;5175;42.606;23.388;2023-01-10T03:17:05;18.50;;;13.87;;
10260;SDS011;5175;42.606;23.388;2023-01-10T03:19:39;20.83;;;13.90;;
10260;SDS011;5175;42.606;23.388;2023-01-10T03:22:10;17.10;;;12.63;;
10260;SDS011;5175;42.606;23.388;2023-01-10T03:24:39;15.07;;;10.90;;
10260;SDS011;5175;42.606;23.388;2023-01-10T03:27:10;18.30;;;11.03;;
10260;SDS011;5175;42.606;23.388;2023-01-10T03:29:44;17.60;;;12.67;;
10260;SDS011;5175;42.606;23.388;2023-01-10T03:32:15;14.87;;;10.90;;
10260;SDS011;5175;42.606;23.388;2023-01-10T03:34:48;16.90;;;11.73;;
10260;SDS011;5175;42.606;23.388;2023-01-10T03:37:16;14.77;;;11.77;;
10260;SDS011;5175;42.606;23.388;2023-01-10T03:39:51;17.63;;;12.57;;
10260;SDS011;5175;42.606;23.388;2023-01-10T03:42:28;16.87;;;12.03;;
10260;SDS011;5175;42.606;23.388;2023-01-10T03:45:23;18.67;;;13.00;;
10260;SDS011;5175;42.606;23.388;2023-01-10T03:47:54;20.43;;;13.93;;
10260;SDS011;5175;42.606;23.388;2023-01-10T03:50:27;20.30;;;14.63;;
10260;SDS011;5175;42.606;23.388;2023-01-10T03:52:55;18.37;;;13.23;;
10260;SDS011;5175;42.606;23.388;2023-01-10T03:55:24;19.60;;;14.50;;
10260;SDS011;5175;42.606;23.388;2023-01-10T03:57:53;17.93;;;13.57;;
10260;SDS011;5175;42.606;23.388;2023-01-10T04:00:20;20.43;;;14.57;;
10260;SDS011;5175;42.606;23.388;2023-01-10T04:02:48;19.63;;;14.00;;
10260;SDS011;5175;42.606;23.388;2023-01-10T04:05:15;18.87;;;14.37;;
10260;SDS011;5175;42.606;23.388;2023-01-10T04:07:43;19.03;;;14.23;;
10260;SDS011;5175;42.606;23.388;2023-01-10T04:10:10;21.63;;;14.67;;
10260;SDS011;5175;42.606;23.388;2023-01-10T04:12:37;22.23;;;14.73;;
10260;SDS011;5175;42.606;23.388;2023-01-10T04:15:05;20.10;;;14.37;;
10260;SDS011;5175;42.606;23.388;2023-01-10T04:17:32;38.53;;;16.93;;
10260;SDS011;5175;42.606;23.388;2023-01-10T04:19:59;23.73;;;16.73;;
10260;SDS011;5175;42.606;23.388;2023-01-10T04:22:25;19.93;;;15.77;;
10260;SDS011;5175;42.606;23.388;2023-01-10T04:24:53;19.63;;;14.53;;
10260;SDS011;5175;42.606;23.388;2023-01-10T04:27:20;16.10;;;12.70;;
10260;SDS011;5175;42.606;23.388;2023-01-10T04:29:47;15.07;;;11.73;;
10260;SDS011;5175;42.606;23.388;2023-01-10T04:32:14;16.73;;;12.00;;
10260;SDS011;5175;42.606;23.388;2023-01-10T04:34:40;16.13;;;12.10;;
10260;SDS011;5175;42.606;23.388;2023-01-10T04:37:07;15.17;;;10.63;;
10260;SDS011;5175;42.606;23.388;2023-01-10T04:39:34;15.03;;;10.83;;
10260;SDS011;5175;42.606;23.388;2023-01-10T04:42:02;16.47;;;11.43;;
10260;SDS011;5175;42.606;23.388;2023-01-10T04:44:29;14.93;;;11.07;;
10260;SDS011;5175;42.606;23.388;2023-01-10T04:46:55;15.17;;;11.10;;
10260;SDS011;5175;42.606;23.388;2023-01-10T04:49:22;16.10;;;11.70;;
10260;SDS011;5175;42.606;23.388;2023-01-10T04:51:49;16.33;;;11.90;;
10260;SDS011;5175;42.606;23.388;2023-01-10T04:54:18;14.43;;;10.73;;
10260;SDS011;5175;42.606;23.388;2023-01-10T04:56:46;16.37;;;11.27;;
10260;SDS011;5175;42.606;23.388;2023-01-10T04:59:14;16.97;;;11.97;;
10260;SDS011;5175;42.606;23.388;2023-01-10T05:01:41;16.63;;;11.67;;
10260;SDS011;5175;42.606;23.388;2023-01-10T05:04:08;16.60;;;11.90;;
10260;SDS011;5175;42.606;23.388;2023-01-10T05:06:35;15.63;;;12.13;;
10260;SDS011;5175;42.606;23.388;2023-01-10T05:09:04;15.03;;;11.20;;
10260;SDS011;5175;42.606;23.388;2023-01-10T05:11:31;16.23;;;11.70;;
10260;SDS011;5175;42.606;23.388;2023-01-10T05:13:58;13.43;;;10.87;;
10260;SDS011;5175;42.606;23.388;2023-01-10T05:16:26;13.93;;;10.40;;
10260;SDS011;5175;42.606;23.388;2023-01-10T05:18:52;13.80;;;10.83;;
10260;SDS011;5175;42.606;23.388;2023-01-10T05:21:19;14.17;;;9.80;;
10260;SDS011;5175;42.606;23.388;2023-01-10T05:23:46;13.13;;;9.47;;
10260;SDS011;5175;42.606;23.388;2023-01-10T05:26:13;11.83;;;9.10;;
10260;SDS011;5175;42.606;23.388;2023-01-10T05:28:42;13.23;;;10.03;;
10260;SDS011;5175;42.606;23.388;2023-01-10T05:31:10;15.23;;;10.73;;
10260;SDS011;5175;42.606;23.388;2023-01-10T05:33:41;15.23;;;10.93;;
10260;SDS011;5175;42.606;23.388;2023-01-10T05:36:09;15.83;;;11.27;;
10260;SDS011;5175;42.606;23.388;2023-01-10T05:38:36;16.00;;;11.40;;
10260;SDS011;5175;42.606;23.388;2023-01-10T05:41:03;16.57;;;11.47;;
10260;SDS011;5175;42.606;23.388;2023-01-10T05:43:30;14.90;;;10.87;;
10260;SDS011;5175;42.606;23.388;2023-01-10T05:45:56;16.70;;;11.67;;
10260;SDS011;5175;42.606;23.388;2023-01-10T05:48:23;16.03;;;11.90;;
10260;SDS011;5175;42.606;23.388;2023-01-10T05:50:51;15.60;;;11.67;;
10260;SDS011;5175;42.606;23.388;2023-01-10T05:53:18;16.77;;;12.07;;
10260;SDS011;5175;42.606;23.388;2023-01-10T05:55:50;16.77;;;11.57;;
10260;SDS011;5175;42.606;23.388;2023-01-10T05:58:18;16.57;;;11.70;;
10260;SDS011;5175;42.606;23.388;2023-01-10T06:00:44;16.87;;;12.20;;
10260;SDS011;5175;42.606;23.388;2023-01-10T06:03:11;16.07;;;11.57;;
10260;SDS011;5175;42.606;23.388;2023-01-10T06:05:38;17.10;;;12.27;;
10260;SDS011;5175;42.606;23.388;2023-01-10T06:08:06;17.60;;;12.53;;
10260;SDS011;5175;42.606;23.388;2023-01-10T06:10:33;15.83;;;11.70;;
10260;SDS011;5175;42.606;23.388;2023-01-10T06:12:59;14.93;;;11.10;;
10260;SDS011;5175;42.606;23.388;2023-01-10T06:15:27;17.70;;;12.47;;
10260;SDS011;5175;42.606;23.388;2023-01-10T06:17:53;15.23;;;11.80;;
10260;SDS011;5175;42.606;23.388;2023-01-10T06:20:20;15.70;;;12.27;;
10260;SDS011;5175;42.606;23.388;2023-01-10T06:22:47;15.43;;;11.77;;
10260;SDS011;5175;42.606;23.388;2023-01-10T06:25:15;14.50;;;11.07;;
10260;SDS011;5175;42.606;23.388;2023-01-10T06:27:42;14.13;;;10.50;;
10260;SDS011;5175;42.606;23.388;2023-01-10T06:30:09;13.43;;;10.37;;
10260;SDS011;5175;42.606;23.388;2023-01-10T06:32:37;14.63;;;10.53;;
10260;SDS011;5175;42.606;23.388;2023-01-10T06:35:06;16.27;;;11.43;;
10260;SDS011;5175;42.606;23.388;2023-01-10T06:37:34;15.60;;;11.40;;
10260;SDS011;5175;42.606;23.388;2023-01-10T06:40:00;15.10;;;11.53;;
10260;SDS011;5175;42.606;23.388;2023-01-10T06:42:29;15.90;;;11.33;;
10260;SDS011;5175;42.606;23.388;2023-01-10T06:44:55;14.53;;;11.43;;
10260;SDS011;5175;42.606;23.388;2023-01-10T06:47:22;18.03;;;12.83;;
10260;SDS011;5175;42.606;23.388;2023-01-10T06:49:49;17.23;;;12.87;;
10260;SDS011;5175;42.606;23.388;2023-01-10T06:52:15;19.07;;;12.60;;
10260;SDS011;5175;42.606;23.388;2023-01-10T06:54:42;18.43;;;12.77;;
10260;SDS011;5175;42.606;23.388;2023-01-10T06:57:09;19.67;;;13.47;;
10260;SDS011;5175;42.606;23.388;2023-01-10T06:59:37;17.47;;;13.13;;
10260;SDS011;5175;42.606;23.388;2023-01-10T07:02:04;18.43;;;12.90;;
10260;SDS011;5175;42.606;23.388;2023-01-10T07:04:30;18.50;;;13.37;;
10260;SDS011;5175;42.606;23.388;2023-01-10T07:06:57;17.23;;;13.30;;
10260;SDS011;5175;42.606;23.388;2023-01-10T07:09:24;18.77;;;13.43;;
10260;SDS011;5175;42.606;23.388;2023-01-10T07:11:51;19.00;;;13.10;;
10260;SDS011;5175;42.606;23.388;2023-01-10T07:14:17;17.87;;;12.87;;
10260;SDS011;5175;42.606;23.388;2023-01-10T07:16:46;17.67;;;12.70;;
10260;SDS011;5175;42.606;23.388;2023-01-10T07:19:12;19.47;;;13.30;;
10260;SDS011;5175;42.606;23.388;2023-01-10T07:21:41;18.93;;;13.27;;
10260;SDS011;5175;42.606;23.388;2023-01-10T07:24:08;17.43;;;13.70;;
10260;SDS011;5175;42.606;23.388;2023-01-10T07:26:35;17.80;;;12.63;;
10260;SDS011;5175;42.606;23.388;2023-01-10T07:29:01;18.73;;;14.03;;
10260;SDS011;5175;42.606;23.388;2023-01-10T07:31:28;19.07;;;13.10;;
10260;SDS011;5175;42.606;23.388;2023-01-10T07:33:56;20.57;;;13.87;;
10260;SDS011;5175;42.606;23.388;2023-01-10T07:36:23;19.97;;;14.40;;
10260;SDS011;5175;42.606;23.388;2023-01-10T07:38:50;19.80;;;13.97;;
10260;SDS011;5175;42.606;23.388;2023-01-10T07:41:17;18.13;;;13.77;;
10260;SDS011;5175;42.606;23.388;2023-01-10T07:43:44;18.13;;;13.47;;
10260;SDS011;5175;42.606;23.388;2023-01-10T07:46:10;20.07;;;13.70;;
10260;SDS011;5175;42.606;23.388;2023-01-10T07:48:37;21.67;;;14.87;;
10260;SDS011;5175;42.606;23.388;2023-01-10T07:51:07;21.80;;;15.07;;
10260;SDS011;5175;42.606;23.388;2023-01-10T07:53:35;19.87;;;14.07;;
10260;SDS011;5175;42.606;23.388;2023-01-10T07:56:02;18.13;;;14.33;;
10260;SDS011;5175;42.606;23.388;2023-01-10T07:58:29;21.73;;;14.33;;
10260;SDS011;5175;42.606;23.388;2023-01-10T08:00:57;19.60;;;14.33;;
10260;SDS011;5175;42.606;23.388;2023-01-10T08:03:25;21.17;;;14.63;;
10260;SDS011;5175;42.606;23.388;2023-01-10T08:05:57;19.53;;;14.40;;
10260;SDS011;5175;42.606;23.388;2023-01-10T08:08:25;19.43;;;13.67;;
10260;SDS011;5175;42.606;23.388;2023-01-10T08:10:52;18.57;;;13.70;;
10260;SDS011;5175;42.606;23.388;2023-01-10T08:13:19;16.17;;;12.50;;
10260;SDS011;5175;42.606;23.388;2023-01-10T08:15:46;18.63;;;13.53;;
10260;SDS011;5175;42.606;23.388;2023-01-10T08:18:14;19.20;;;13.67;;
10260;SDS011;5175;42.606;23.388;2023-01-10T08:20:41;16.37;;;12.97;;
10260;SDS011;5175;42.606;23.388;2023-01-10T08:23:08;16.30;;;12.90;;
10260;SDS011;5175;42.606;23.388;2023-01-10T08:25:36;18.30;;;13.87;;
10260;SDS011;5175;42.606;23.388;2023-01-10T08:28:03;17.03;;;14.23;;
10260;SDS011;5175;42.606;23.388;2023-01-10T08:30:30;17.77;;;12.80;;
10260;SDS011;5175;42.606;23.388;2023-01-10T08:32:56;17.27;;;12.90;;
10260;SDS011;5175;42.606;23.388;2023-01-10T08:35:23;15.63;;;12.57;;
10260;SDS011;5175;42.606;23.388;2023-01-10T08:37:50;14.33;;;11.30;;
10260;SDS011;5175;42.606;23.388;2023-01-10T08:40:17;16.43;;;12.97;;
10260;SDS011;5175;42.606;23.388;2023-01-10T08:42:45;18.83;;;13.33;;
10260;SDS011;5175;42.606;23.388;2023-01-10T08:45:12;17.47;;;13.77;;
10260;SDS011;5175;42.606;23.388;2023-01-10T08:47:39;17.83;;;13.10;;
10260;SDS011;5175;42.606;23.388;2023-01-10T08:50:06;14.27;;;12.23;;
10260;SDS011;5175;42.606;23.388;2023-01-10T08:52:36;15.93;;;12.20;;
10260;SDS011;5175;42.606;23.388;2023-01-10T08:55:03;14.13;;;12.23;;
10260;SDS011;5175;42.606;23.388;2023-01-10T08:57:37;14.73;;;12.47;;
10260;SDS011;5175;42.606;23.388;2023-01-10T09:00:07;15.70;;;12.43;;
10260;SDS011;5175;42.606;23.388;2023-01-10T09:02:36;15.10;;;12.30;;
10260;SDS011;5175;42.606;23.388;2023-01-10T09:05:04;13.20;;;11.33;;
10260;SDS011;5175;42.606;23.388;2023-01-10T09:07:31;14.10;;;11.93;;
10260;SDS011;5175;42.606;23.388;2023-01-10T09:09:58;15.77;;;12.20;;
10260;SDS011;5175;42.606;23.388;2023-01-10T09:12:24;17.60;;;13.20;;
10260;SDS011;5175;42.606;23.388;2023-01-10T09:15:10;17.73;;;15.80;;
10260;SDS011;5175;42.606;23.388;2023-01-10T09:17:38;14.53;;;12.00;;
10260;SDS011;5175;42.606;23.388;2023-01-10T09:20:05;12.67;;;10.30;;
10260;SDS011;5175;42.606;23.388;2023-01-10T09:22:38;12.80;;;10.90;;
10260;SDS011;5175;42.606;23.388;2023-01-10T09:25:05;15.83;;;10.43;;
10260;SDS011;5175;42.606;23.388;2023-01-10T09:27:32;12.07;;;10.70;;
10260;SDS011;5175;42.606;23.388;2023-01-10T09:29:59;14.57;;;11.60;;
10260;SDS011;5175;42.606;23.388;2023-01-10T09:32:27;15.93;;;12.50;;
10260;SDS011;5175;42.606;23.388;2023-01-10T09:34:54;16.27;;;12.90;;
10260;SDS011;5175;42.606;23.388;2023-01-10T09:37:24;16.70;;;13.33;;
10260;SDS011;5175;42.606;23.388;2023-01-10T09:39:51;19.57;;;15.43;;
10260;SDS011;5175;42.606;23.388;2023-01-10T09:42:24;19.33;;;15.77;;
10260;SDS011;5175;42.606;23.388;2023-01-10T09:45:02;23.13;;;17.57;;
10260;SDS011;5175;42.606;23.388;2023-01-10T09:47:40;24.87;;;19.83;;
10260;SDS011;5175;42.606;23.388;2023-01-10T09:50:16;24.50;;;19.53;;
10260;SDS011;5175;42.606;23.388;2023-01-10T09:52:49;27.07;;;20.83;;
10260;SDS011;5175;42.606;23.388;2023-01-10T09:55:22;28.47;;;21.70;;
10260;SDS011;5175;42.606;23.388;2023-01-10T09:57:52;26.10;;;21.00;;
10260;SDS011;5175;42.606;23.388;2023-01-10T10:00:23;30.37;;;23.00;;
10260;SDS011;5175;42.606;23.388;2023-01-10T10:03:00;29.73;;;22.07;;
10260;SDS011;5175;42.606;23.388;2023-01-10T10:05:38;29.67;;;22.03;;
10260;SDS011;5175;42.606;23.388;2023-01-10T10:08:07;34.70;;;24.87;;
10260;SDS011;5175;42.606;23.388;2023-01-10T10:10:42;30.60;;;23.27;;
10260;SDS011;5175;42.606;23.388;2023-01-10T10:13:18;27.53;;;22.97;;
10260;SDS011;5175;42.606;23.388;2023-01-10T10:15:52;30.03;;;23.20;;
10260;SDS011;5175;42.606;23.388;2023-01-10T10:18:32;32.07;;;22.70;;
10260;SDS011;5175;42.606;23.388;2023-01-10T10:21:10;28.73;;;22.27;;
10260;SDS011;5175;42.606;23.388;2023-01-10T10:23:55;23.73;;;19.47;;
10260;SDS011;5175;42.606;23.388;2023-01-10T10:26:34;21.23;;;18.97;;
10260;SDS011;5175;42.606;23.388;2023-01-10T10:29:08;21.17;;;16.97;;
10260;SDS011;5175;42.606;23.388;2023-01-10T10:32:13;19.97;;;15.70;;
10260;SDS011;5175;42.606;23.388;2023-01-10T10:34:52;18.77;;;14.80;;
10260;SDS011;5175;42.606;23.388;2023-01-10T10:37:24;20.97;;;16.17;;
10260;SDS011;5175;42.606;23.388;2023-01-10T10:39:57;19.17;;;16.07;;
10260;SDS011;5175;42.606;23.388;2023-01-10T10:42:27;19.50;;;16.23;;
10260;SDS011;5175;42.606;23.388;2023-01-10T10:44:58;18.17;;;16.03;;
10260;SDS011;5175;42.606;23.388;2023-01-10T10:47:30;19.20;;;16.43;;
10260;SDS011;5175;42.606;23.388;2023-01-10T10:50:02;18.50;;;16.27;;
10260;SDS011;5175;42.606;23.388;2023-01-10T10:52:41;18.77;;;16.77;;
10260;SDS011;5175;42.606;23.388;2023-01-10T10:55:11;20.10;;;17.00;;
10260;SDS011;5175;42.606;23.388;2023-01-10T10:57:39;22.03;;;16.67;;
10260;SDS011;5175;42.606;23.388;2023-01-10T11:00:12;17.50;;;15.57;;
10260;SDS011;5175;42.606;23.388;2023-01-10T11:02:42;17.13;;;15.20;;
10260;SDS011;5175;42.606;23.388;2023-01-10T11:05:15;21.73;;;16.80;;
10260;SDS011;5175;42.606;23.388;2023-01-10T11:07:45;21.27;;;18.10;;
10260;SDS011;5175;42.606;23.388;2023-01-10T11:10:13;27.30;;;22.47;;
10260;SDS011;5175;42.606;23.388;2023-01-10T11:12:55;34.63;;;25.60;;
10260;SDS011;5175;42.606;23.388;2023-01-10T11:15:36;32.20;;;25.93;;
10260;SDS011;5175;42.606;23.388;2023-01-10T11:18:05;32.57;;;25.03;;
10260;SDS011;5175;42.606;23.388;2023-01-10T11:20:38;33.97;;;25.83;;
10260;SDS011;5175;42.606;23.388;2023-01-10T11:23:19;35.00;;;25.40;;
10260;SDS011;5175;42.606;23.388;2023-01-10T11:25:47;35.83;;;26.53;;
10260;SDS011;5175;42.606;23.388;2023-01-10T11:28:15;35.03;;;27.90;;
10260;SDS011;5175;42.606;23.388;2023-01-10T11:30:44;33.17;;;26.80;;
10260;SDS011;5175;42.606;23.388;2023-01-10T11:33:16;33.93;;;26.60;;
10260;SDS011;5175;42.606;23.388;2023-01-10T11:35:56;33.07;;;26.10;;
10260;SDS011;5175;42.606;23.388;2023-01-10T11:38:26;32.53;;;25.50;;
10260;SDS011;5175;42.606;23.388;2023-01-10T11:40:55;36.03;;;27.40;;
10260;SDS011;5175;42.606;23.388;2023-01-10T11:43:25;35.00;;;28.20;;
10260;SDS011;5175;42.606;23.388;2023-01-10T11:45:54;37.23;;;29.03;;
10260;SDS011;5175;42.606;23.388;2023-01-10T11:48:23;34.43;;;27.97;;
10260;SDS011;5175;42.606;23.388;2023-01-10T11:50:52;39.73;;;29.47;;
10260;SDS011;5175;42.606;23.388;2023-01-10T11:53:30;40.33;;;30.47;;
10260;SDS011;5175;42.606;23.388;2023-01-10T11:56:03;39.60;;;31.30;;
10260;SDS011;5175;42.606;23.388;2023-01-10T11:58:31;39.60;;;30.97;;
10260;SDS011;5175;42.606;23.388;2023-01-10T12:01:02;40.77;;;31.93;;
10260;SDS011;5175;42.606;23.388;2023-01-10T12:03:30;39.83;;;30.53;;
10260;SDS011;5175;42.606;23.388;2023-01-10T12:06:01;39.10;;;30.27;;
10260;SDS011;5175;42.606;23.388;2023-01-10T12:08:32;39.63;;;30.50;;
10260;SDS011;5175;42.606;23.388;2023-01-10T12:11:02;38.27;;;30.03;;
10260;SDS011;5175;42.606;23.388;2023-01-10T12:13:42;39.40;;;29.13;;
10260;SDS011;5175;42.606;23.388;2023-01-10T12:16:14;37.37;;;27.17;;
10260;SDS011;5175;42.606;23.388;2023-01-10T12:18:42;36.33;;;27.57;;
10260;SDS011;5175;42.606;23.388;2023-01-10T12:21:08;36.43;;;26.97;;
10260;SDS011;5175;42.606;23.388;2023-01-10T12:23:39;38.53;;;27.80;;
10260;SDS011;5175;42.606;23.388;2023-01-10T12:26:09;33.07;;;25.30;;
10260;SDS011;5175;42.606;23.388;2023-01-10T12:28:37;34.33;;;25.63;;
10260;SDS011;5175;42.606;23.388;2023-01-10T12:31:06;33.30;;;25.83;;
10260;SDS011;5175;42.606;23.388;2023-01-10T12:33:39;33.87;;;25.33;;
10260;SDS011;5175;42.606;23.388;2023-01-10T12:36:12;32.97;;;25.43;;
10260;SDS011;5175;42.606;23.388;2023-01-10T12:38:47;30.80;;;23.60;;
10260;SDS011;5175;42.606;23.388;2023-01-10T12:41:29;31.53;;;24.73;;
10260;SDS011;5175;42.606;23.388;2023-01-10T12:44:21;35.60;;;26.67;;
10260;SDS011;5175;42.606;23.388;2023-01-10T12:46:54;34.77;;;26.27;;
10260;SDS011;5175;42.606;23.388;2023-01-10T12:49:24;27.80;;;21.63;;
10260;SDS011;5175;42.606;23.388;2023-01-10T12:51:55;26.43;;;19.83;;
10260;SDS011;5175;42.606;23.388;2023-01-10T12:54:28;24.37;;;18.87;;
10260;SDS011;5175;42.606;23.388;2023-01-10T12:56:57;23.80;;;19.63;;
10260;SDS011;5175;42.606;23.388;2023-01-10T12:59:26;23.67;;;19.20;;
10260;SDS011;5175;42.606;23.388;2023-01-10T13:02:01;23.87;;;18.73;;
10260;SDS011;5175;42.606;23.388;2023-01-10T13:04:30;23.40;;;19.20;;
10260;SDS011;5175;42.606;23.388;2023-01-10T13:06:59;25.13;;;20.43;;
10260;SDS011;5175;42.606;23.388;2023-01-10T13:09:28;23.53;;;18.63;;
10260;SDS011;5175;42.606;23.388;2023-01-10T13:11:57;25.30;;;19.20;;
10260;SDS011;5175;42.606;23.388;2023-01-10T13:14:30;22.80;;;19.63;;
10260;SDS011;5175;42.606;23.388;2023-01-10T13:17:05;23.93;;;18.97;;
10260;SDS011;5175;42.606;23.388;2023-01-10T13:19:41;22.93;;;18.73;;
10260;SDS011;5175;42.606;23.388;2023-01-10T13:22:15;21.67;;;18.00;;
10260;SDS011;5175;42.606;23.388;2023-01-10T13:24:54;22.97;;;18.37;;
10260;SDS011;5175;42.606;23.388;2023-01-10T13:27:23;22.13;;;18.10;;
10260;SDS011;5175;42.606;23.388;2023-01-10T13:29:54;20.87;;;17.60;;
10260;SDS011;5175;42.606;23.388;2023-01-10T13:32:21;21.90;;;17.63;;
10260;SDS011;5175;42.606;23.388;2023-01-10T13:34:50;19.63;;;16.70;;
10260;SDS011;5175;42.606;23.388;2023-01-10T13:37:20;19.43;;;16.30;;
10260;SDS011;5175;42.606;23.388;2023-01-10T13:39:50;18.50;;;16.40;;
10260;SDS011;5175;42.606;23.388;2023-01-10T13:42:25;20.97;;;18.77;;
10260;SDS011;5175;42.606;23.388;2023-01-10T13:45:23;28.40;;;25.40;;
10260;SDS011;5175;42.606;23.388;2023-01-10T13:47:59;25.93;;;23.13;;
10260;SDS011;5175;42.606;23.388;2023-01-10T13:53:41;19.50;;;15.70;;
10260;SDS011;5175;42.606;23.388;2023-01-10T13:56:33;19.50;;;15.43;;
10260;SDS011;5175;42.606;23.388;2023-01-10T13:59:09;17.10;;;14.87;;
10260;SDS011;5175;42.606;23.388;2023-01-10T14:01:56;17.33;;;14.40;;
10260;SDS011;5175;42.606;23.388;2023-01-10T14:04:44;15.87;;;13.47;;
10260;SDS011;5175;42.606;23.388;2023-01-10T14:07:17;16.63;;;13.57;;
10260;SDS011;5175;42.606;23.388;2023-01-10T14:09:49;15.27;;;13.30;;
10260;SDS011;5175;42.606;23.388;2023-01-10T14:12:18;16.33;;;13.73;;
10260;SDS011;5175;42.606;23.388;2023-01-10T14:14:51;13.20;;;11.80;;
10260;SDS011;5175;42.606;23.388;2023-01-10T14:17:24;13.97;;;12.43;;
10260;SDS011;5175;42.606;23.388;2023-01-10T14:20:00;13.40;;;12.00;;
10260;SDS011;5175;42.606;23.388;2023-01-10T14:22:32;15.03;;;12.13;;
10260;SDS011;5175;42.606;23.388;2023-01-10T14:25:00;12.90;;;11.60;;
10260;SDS011;5175;42.606;23.388;2023-01-10T14:27:32;13.57;;;11.60;;
10260;SDS011;5175;42.606;23.388;2023-01-10T14:30:14;13.53;;;11.63;;
10260;SDS011;5175;42.606;23.388;2023-01-10T14:32:44;15.03;;;11.57;;
10260;SDS011;5175;42.606;23.388;2023-01-10T14:35:16;11.80;;;10.60;;
10260;SDS011;5175;42.606;23.388;2023-01-10T14:37:45;13.30;;;11.27;;
10260;SDS011;5175;42.606;23.388;2023-01-10T14:40:19;13.97;;;12.50;;
10260;SDS011;5175;42.606;23.388;2023-01-10T14:42:50;12.17;;;10.97;;
10260;SDS011;5175;42.606;23.388;2023-01-10T14:45:25;12.70;;;11.37;;